Route Details

Aircraft Information
Group: Boeing 767-300BDSF
Types: B763
Route Data
Distance: 976nm
Duration: 2h 29m
Origin METAR: MROC 160000Z VRB02KT 9999 -RA FEW010 SCT025 BKN100 21/19 A3004 NOSIG
Dest. METAR: KMIA 152353Z 00000KT 10SM FEW025 FEW110 BKN200 28/25 A2991 RMK AO2 SLP129 60081 T02780250 10333 20244 56009
Freight Data
(for Aug 16, 2022)
Load Factor:
75%
Manifested Cargo: 93,157lbs
Financial History
Total Freight: 416,634lbs
Average Load: 0lbs/flt
Fuel Used: 134,463lbs
Avg. Fuel Used: 0lbs/flt
Fuel Expense: $67,016
Avg. Fuel Expense: $0
Avg. Fuel Cost: $0/lbs
Total Gross Income: $1,097,952
Pilot Pay: $866
Total Expenses: $196,563
Total Revenue: $831,639
Average Revenue: $0

Capitol Logistics 772




MROC
Juan Santamar?a International Airport
San Jose, CR
KMIA
Miami International Airport
Miami, US

Activity Log

Date Flight Route Aircraft Duration
08/13/2022 CPX772 NANJ3R RADON UB767 PZA UZ751 SELEK DCT XOPLI UG448 IKBIX SNDBR2 B763 2h 27m
07/18/2022 CPX772 NANJ4L LIB UL200 DORLA UL207 URNOS UB764 CZM UB881 CUN UM219 XOPGI UB646 CANOA DCT EYW DVALL3 B763 1h 31m
08/28/2020 CPX618 UCA UA301 URSUS FLIPR6 B763 2h 41m
06/21/2019 CPX718 UCA UA301 URSUS FLIPR6 B763 2h 37m